sensor_id;sensor_type;location;lat;lon;timestamp;P1;durP1;ratioP1;P2;durP2;ratioP2
485;SDS011;229;48.734;9.340;2022-07-29T00:02:04;9.00;;;7.50;;
485;SDS011;229;48.734;9.340;2022-07-29T00:04:33;10.40;;;7.17;;
485;SDS011;229;48.734;9.340;2022-07-29T00:07:00;11.03;;;7.70;;
485;SDS011;229;48.734;9.340;2022-07-29T00:09:28;11.47;;;7.87;;
485;SDS011;229;48.734;9.340;2022-07-29T00:11:55;12.37;;;7.63;;
485;SDS011;229;48.734;9.340;2022-07-29T00:14:23;8.37;;;7.27;;
485;SDS011;229;48.734;9.340;2022-07-29T00:16:52;10.20;;;7.47;;
485;SDS011;229;48.734;9.340;2022-07-29T00:19:19;13.80;;;8.00;;
485;SDS011;229;48.734;9.340;2022-07-29T00:21:47;9.10;;;7.70;;
485;SDS011;229;48.734;9.340;2022-07-29T00:24:14;9.50;;;7.63;;
485;SDS011;229;48.734;9.340;2022-07-29T00:26:41;10.60;;;7.30;;
485;SDS011;229;48.734;9.340;2022-07-29T00:29:08;13.20;;;8.60;;
485;SDS011;229;48.734;9.340;2022-07-29T00:31:35;9.57;;;7.20;;
485;SDS011;229;48.734;9.340;2022-07-29T00:34:04;11.80;;;7.73;;
485;SDS011;229;48.734;9.340;2022-07-29T00:36:52;12.57;;;7.57;;
485;SDS011;229;48.734;9.340;2022-07-29T00:39:18;11.17;;;8.47;;
485;SDS011;229;48.734;9.340;2022-07-29T00:41:45;10.43;;;7.97;;
485;SDS011;229;48.734;9.340;2022-07-29T00:44:12;12.20;;;8.37;;
485;SDS011;229;48.734;9.340;2022-07-29T00:46:39;8.73;;;8.20;;
485;SDS011;229;48.734;9.340;2022-07-29T00:49:08;13.63;;;7.80;;
485;SDS011;229;48.734;9.340;2022-07-29T00:51:35;15.17;;;7.80;;
485;SDS011;229;48.734;9.340;2022-07-29T00:54:03;15.17;;;8.60;;
485;SDS011;229;48.734;9.340;2022-07-29T00:56:31;12.73;;;7.97;;
485;SDS011;229;48.734;9.340;2022-07-29T00:58:59;11.00;;;7.90;;
485;SDS011;229;48.734;9.340;2022-07-29T01:01:26;9.63;;;8.33;;
485;SDS011;229;48.734;9.340;2022-07-29T01:03:54;10.43;;;8.23;;
485;SDS011;229;48.734;9.340;2022-07-29T01:06:23;9.27;;;7.10;;
485;SDS011;229;48.734;9.340;2022-07-29T01:08:50;12.73;;;8.70;;
485;SDS011;229;48.734;9.340;2022-07-29T01:11:18;11.90;;;8.20;;
485;SDS011;229;48.734;9.340;2022-07-29T01:13:45;9.20;;;6.80;;
485;SDS011;229;48.734;9.340;2022-07-29T01:16:15;9.87;;;8.30;;
485;SDS011;229;48.734;9.340;2022-07-29T01:18:44;11.10;;;8.70;;
485;SDS011;229;48.734;9.340;2022-07-29T01:21:19;9.03;;;8.10;;
485;SDS011;229;48.734;9.340;2022-07-29T01:24:07;12.40;;;7.83;;
485;SDS011;229;48.734;9.340;2022-07-29T01:26:41;13.27;;;8.07;;
485;SDS011;229;48.734;9.340;2022-07-29T01:29:24;10.57;;;7.77;;
485;SDS011;229;48.734;9.340;2022-07-29T01:31:54;10.60;;;8.10;;
485;SDS011;229;48.734;9.340;2022-07-29T01:34:23;9.00;;;8.10;;
485;SDS011;229;48.734;9.340;2022-07-29T01:36:59;11.57;;;7.60;;
485;SDS011;229;48.734;9.340;2022-07-29T01:39:29;9.53;;;7.73;;
485;SDS011;229;48.734;9.340;2022-07-29T01:41:58;13.77;;;7.40;;
485;SDS011;229;48.734;9.340;2022-07-29T01:44:32;10.33;;;7.20;;
485;SDS011;229;48.734;9.340;2022-07-29T01:47:02;9.30;;;7.40;;
485;SDS011;229;48.734;9.340;2022-07-29T01:49:33;17.37;;;8.60;;
485;SDS011;229;48.734;9.340;2022-07-29T01:52:03;12.80;;;8.10;;
485;SDS011;229;48.734;9.340;2022-07-29T01:54:34;9.90;;;7.60;;
485;SDS011;229;48.734;9.340;2022-07-29T01:57:02;10.70;;;8.10;;
485;SDS011;229;48.734;9.340;2022-07-29T01:59:31;13.90;;;7.93;;
485;SDS011;229;48.734;9.340;2022-07-29T02:02:00;11.93;;;7.03;;
485;SDS011;229;48.734;9.340;2022-07-29T02:04:28;10.30;;;7.87;;
485;SDS011;229;48.734;9.340;2022-07-29T02:06:57;8.50;;;7.60;;
485;SDS011;229;48.734;9.340;2022-07-29T02:09:25;11.90;;;7.27;;
485;SDS011;229;48.734;9.340;2022-07-29T02:11:53;9.07;;;7.27;;
485;SDS011;229;48.734;9.340;2022-07-29T02:14:21;8.37;;;6.87;;
485;SDS011;229;48.734;9.340;2022-07-29T02:16:52;9.63;;;7.63;;
485;SDS011;229;48.734;9.340;2022-07-29T02:19:21;10.90;;;7.07;;
485;SDS011;229;48.734;9.340;2022-07-29T02:21:48;13.53;;;7.00;;
485;SDS011;229;48.734;9.340;2022-07-29T02:24:18;10.23;;;7.77;;
485;SDS011;229;48.734;9.340;2022-07-29T02:26:46;13.40;;;8.10;;
485;SDS011;229;48.734;9.340;2022-07-29T02:29:14;8.40;;;7.37;;
485;SDS011;229;48.734;9.340;2022-07-29T02:31:43;10.20;;;7.90;;
485;SDS011;229;48.734;9.340;2022-07-29T02:34:13;8.20;;;6.90;;
485;SDS011;229;48.734;9.340;2022-07-29T02:36:41;10.93;;;7.60;;
485;SDS011;229;48.734;9.340;2022-07-29T02:39:09;11.60;;;7.13;;
485;SDS011;229;48.734;9.340;2022-07-29T02:41:40;8.20;;;7.17;;
485;SDS011;229;48.734;9.340;2022-07-29T02:44:09;12.68;;;7.55;;
485;SDS011;229;48.734;9.340;2022-07-29T02:46:37;10.23;;;7.50;;
485;SDS011;229;48.734;9.340;2022-07-29T02:49:09;10.23;;;7.03;;
485;SDS011;229;48.734;9.340;2022-07-29T02:51:41;9.17;;;7.10;;
485;SDS011;229;48.734;9.340;2022-07-29T02:54:08;8.70;;;7.03;;
485;SDS011;229;48.734;9.340;2022-07-29T02:56:37;11.30;;;7.43;;
485;SDS011;229;48.734;9.340;2022-07-29T02:59:07;9.18;;;7.75;;
485;SDS011;229;48.734;9.340;2022-07-29T03:01:36;10.80;;;7.57;;
485;SDS011;229;48.734;9.340;2022-07-29T03:04:06;8.43;;;7.22;;
485;SDS011;229;48.734;9.340;2022-07-29T03:06:34;7.77;;;6.30;;
485;SDS011;229;48.734;9.340;2022-07-29T03:09:04;8.48;;;7.03;;
485;SDS011;229;48.734;9.340;2022-07-29T03:11:31;7.50;;;6.40;;
485;SDS011;229;48.734;9.340;2022-07-29T03:13:59;10.47;;;6.77;;
485;SDS011;229;48.734;9.340;2022-07-29T03:16:27;9.37;;;7.17;;
485;SDS011;229;48.734;9.340;2022-07-29T03:18:54;8.33;;;6.60;;
485;SDS011;229;48.734;9.340;2022-07-29T03:21:22;9.85;;;7.07;;
485;SDS011;229;48.734;9.340;2022-07-29T03:23:49;8.13;;;6.75;;
485;SDS011;229;48.734;9.340;2022-07-29T03:26:17;11.32;;;6.97;;
485;SDS011;229;48.734;9.340;2022-07-29T03:28:45;9.43;;;6.90;;
485;SDS011;229;48.734;9.340;2022-07-29T03:31:13;10.88;;;6.80;;
485;SDS011;229;48.734;9.340;2022-07-29T03:33:40;7.18;;;6.10;;
485;SDS011;229;48.734;9.340;2022-07-29T03:36:07;8.03;;;7.10;;
485;SDS011;229;48.734;9.340;2022-07-29T03:38:34;7.17;;;6.43;;
485;SDS011;229;48.734;9.340;2022-07-29T03:41:04;7.50;;;6.90;;
485;SDS011;229;48.734;9.340;2022-07-29T03:43:34;9.07;;;6.53;;
485;SDS011;229;48.734;9.340;2022-07-29T03:46:02;9.23;;;6.60;;
485;SDS011;229;48.734;9.340;2022-07-29T03:48:30;7.03;;;6.22;;
485;SDS011;229;48.734;9.340;2022-07-29T03:51:00;8.48;;;6.53;;
485;SDS011;229;48.734;9.340;2022-07-29T03:53:31;10.02;;;7.03;;
485;SDS011;229;48.734;9.340;2022-07-29T03:56:00;10.65;;;6.55;;
485;SDS011;229;48.734;9.340;2022-07-29T03:58:28;9.10;;;6.85;;
485;SDS011;229;48.734;9.340;2022-07-29T04:00:58;7.82;;;6.43;;
485;SDS011;229;48.734;9.340;2022-07-29T04:03:25;18.60;;;7.18;;
485;SDS011;229;48.734;9.340;2022-07-29T04:05:59;7.40;;;6.47;;
485;SDS011;229;48.734;9.340;2022-07-29T04:08:27;9.00;;;6.63;;
485;SDS011;229;48.734;9.340;2022-07-29T04:10:55;9.82;;;6.50;;
485;SDS011;229;48.734;9.340;2022-07-29T04:13:22;8.57;;;6.25;;
485;SDS011;229;48.734;9.340;2022-07-29T04:15:49;7.55;;;6.65;;
485;SDS011;229;48.734;9.340;2022-07-29T04:18:18;7.60;;;6.85;;
485;SDS011;229;48.734;9.340;2022-07-29T04:20:45;8.20;;;6.22;;
485;SDS011;229;48.734;9.340;2022-07-29T04:23:12;10.32;;;8.30;;
485;SDS011;229;48.734;9.340;2022-07-29T04:25:39;12.32;;;6.80;;
485;SDS011;229;48.734;9.340;2022-07-29T04:28:07;10.02;;;7.38;;
485;SDS011;229;48.734;9.340;2022-07-29T04:30:35;9.15;;;6.63;;
485;SDS011;229;48.734;9.340;2022-07-29T04:33:03;8.65;;;7.35;;
485;SDS011;229;48.734;9.340;2022-07-29T04:35:33;8.23;;;7.20;;
485;SDS011;229;48.734;9.340;2022-07-29T04:38:00;7.75;;;7.00;;
485;SDS011;229;48.734;9.340;2022-07-29T04:40:28;8.48;;;7.10;;
485;SDS011;229;48.734;9.340;2022-07-29T04:42:55;8.07;;;6.40;;
485;SDS011;229;48.734;9.340;2022-07-29T04:45:22;7.63;;;6.82;;
485;SDS011;229;48.734;9.340;2022-07-29T04:47:50;9.30;;;6.95;;
485;SDS011;229;48.734;9.340;2022-07-29T04:50:17;11.50;;;7.40;;
485;SDS011;229;48.734;9.340;2022-07-29T04:52:46;10.15;;;7.85;;
485;SDS011;229;48.734;9.340;2022-07-29T04:55:13;11.18;;;7.80;;
485;SDS011;229;48.734;9.340;2022-07-29T04:57:40;11.68;;;7.20;;
485;SDS011;229;48.734;9.340;2022-07-29T05:00:08;8.23;;;7.20;;
485;SDS011;229;48.734;9.340;2022-07-29T05:02:35;9.23;;;7.10;;
485;SDS011;229;48.734;9.340;2022-07-29T05:05:03;9.23;;;7.43;;
485;SDS011;229;48.734;9.340;2022-07-29T05:07:30;9.35;;;7.45;;
485;SDS011;229;48.734;9.340;2022-07-29T05:10:00;10.43;;;7.90;;
485;SDS011;229;48.734;9.340;2022-07-29T05:12:27;8.10;;;6.70;;
485;SDS011;229;48.734;9.340;2022-07-29T05:14:54;10.30;;;8.48;;
485;SDS011;229;48.734;9.340;2022-07-29T05:17:21;9.45;;;8.15;;
485;SDS011;229;48.734;9.340;2022-07-29T05:19:48;13.52;;;9.30;;
485;SDS011;229;48.734;9.340;2022-07-29T05:22:16;12.30;;;9.05;;
485;SDS011;229;48.734;9.340;2022-07-29T05:24:43;17.73;;;9.20;;
485;SDS011;229;48.734;9.340;2022-07-29T05:27:12;9.97;;;8.70;;
485;SDS011;229;48.734;9.340;2022-07-29T05:29:39;14.20;;;9.00;;
485;SDS011;229;48.734;9.340;2022-07-29T05:32:06;12.60;;;9.77;;
485;SDS011;229;48.734;9.340;2022-07-29T05:34:34;9.23;;;7.60;;
485;SDS011;229;48.734;9.340;2022-07-29T05:37:01;9.60;;;7.73;;
485;SDS011;229;48.734;9.340;2022-07-29T05:39:28;14.03;;;9.00;;
485;SDS011;229;48.734;9.340;2022-07-29T05:41:55;10.10;;;8.70;;
485;SDS011;229;48.734;9.340;2022-07-29T05:44:24;11.23;;;8.20;;
485;SDS011;229;48.734;9.340;2022-07-29T05:46:52;9.47;;;8.37;;
485;SDS011;229;48.734;9.340;2022-07-29T05:49:19;12.23;;;9.13;;
485;SDS011;229;48.734;9.340;2022-07-29T05:51:46;13.93;;;10.30;;
485;SDS011;229;48.734;9.340;2022-07-29T05:54:14;13.50;;;9.50;;
485;SDS011;229;48.734;9.340;2022-07-29T05:56:41;14.37;;;10.20;;
485;SDS011;229;48.734;9.340;2022-07-29T05:59:08;13.40;;;10.37;;
485;SDS011;229;48.734;9.340;2022-07-29T06:01:37;14.60;;;10.60;;
485;SDS011;229;48.734;9.340;2022-07-29T06:04:05;16.03;;;9.77;;
485;SDS011;229;48.734;9.340;2022-07-29T06:06:32;11.00;;;9.83;;
485;SDS011;229;48.734;9.340;2022-07-29T06:09:00;14.30;;;10.10;;
485;SDS011;229;48.734;9.340;2022-07-29T06:11:27;8.87;;;8.07;;
485;SDS011;229;48.734;9.340;2022-07-29T06:13:54;10.57;;;8.20;;
485;SDS011;229;48.734;9.340;2022-07-29T06:16:21;8.43;;;7.80;;
485;SDS011;229;48.734;9.340;2022-07-29T06:18:50;9.07;;;7.50;;
485;SDS011;229;48.734;9.340;2022-07-29T06:21:17;7.43;;;6.47;;
485;SDS011;229;48.734;9.340;2022-07-29T06:23:44;9.20;;;7.03;;
485;SDS011;229;48.734;9.340;2022-07-29T06:26:12;14.47;;;7.77;;
485;SDS011;229;48.734;9.340;2022-07-29T06:28:39;9.70;;;8.40;;
485;SDS011;229;48.734;9.340;2022-07-29T06:31:06;8.27;;;7.60;;
485;SDS011;229;48.734;9.340;2022-07-29T06:33:34;12.30;;;8.60;;
485;SDS011;229;48.734;9.340;2022-07-29T06:36:04;8.90;;;7.97;;
485;SDS011;229;48.734;9.340;2022-07-29T06:38:32;12.27;;;8.13;;
485;SDS011;229;48.734;9.340;2022-07-29T06:40:59;8.87;;;7.37;;
485;SDS011;229;48.734;9.340;2022-07-29T06:43:27;8.70;;;8.20;;
485;SDS011;229;48.734;9.340;2022-07-29T06:45:56;9.70;;;7.87;;
485;SDS011;229;48.734;9.340;2022-07-29T06:48:23;8.70;;;7.40;;
485;SDS011;229;48.734;9.340;2022-07-29T06:50:51;10.27;;;7.80;;
485;SDS011;229;48.734;9.340;2022-07-29T06:53:20;7.47;;;7.07;;
485;SDS011;229;48.734;9.340;2022-07-29T06:55:47;8.17;;;7.67;;
485;SDS011;229;48.734;9.340;2022-07-29T06:58:14;7.67;;;7.27;;
485;SDS011;229;48.734;9.340;2022-07-29T07:00:43;8.63;;;7.43;;
485;SDS011;229;48.734;9.340;2022-07-29T07:03:10;7.50;;;7.07;;
485;SDS011;229;48.734;9.340;2022-07-29T07:05:37;8.40;;;7.13;;
485;SDS011;229;48.734;9.340;2022-07-29T07:08:05;7.73;;;7.10;;
485;SDS011;229;48.734;9.340;2022-07-29T07:10:34;7.63;;;7.13;;
485;SDS011;229;48.734;9.340;2022-07-29T07:13:01;7.20;;;6.80;;
485;SDS011;229;48.734;9.340;2022-07-29T07:15:29;8.00;;;7.60;;
485;SDS011;229;48.734;9.340;2022-07-29T07:17:56;13.13;;;9.30;;
485;SDS011;229;48.734;9.340;2022-07-29T07:20:24;9.10;;;8.60;;
485;SDS011;229;48.734;9.340;2022-07-29T07:22:51;9.73;;;9.23;;
485;SDS011;229;48.734;9.340;2022-07-29T07:25:18;9.23;;;8.60;;
485;SDS011;229;48.734;9.340;2022-07-29T07:27:48;9.40;;;8.90;;
485;SDS011;229;48.734;9.340;2022-07-29T07:30:15;10.27;;;8.70;;
485;SDS011;229;48.734;9.340;2022-07-29T07:32:42;10.33;;;8.47;;
485;SDS011;229;48.734;9.340;2022-07-29T07:35:10;8.60;;;8.10;;
485;SDS011;229;48.734;9.340;2022-07-29T07:37:38;8.47;;;8.00;;
485;SDS011;229;48.734;9.340;2022-07-29T07:40:07;9.20;;;8.70;;
485;SDS011;229;48.734;9.340;2022-07-29T07:42:34;8.27;;;7.87;;
485;SDS011;229;48.734;9.340;2022-07-29T07:45:03;11.10;;;9.57;;
485;SDS011;229;48.734;9.340;2022-07-29T07:47:31;9.60;;;8.67;;
485;SDS011;229;48.734;9.340;2022-07-29T07:49:58;8.97;;;8.47;;
485;SDS011;229;48.734;9.340;2022-07-29T07:52:25;11.60;;;10.30;;
485;SDS011;229;48.734;9.340;2022-07-29T07:54:52;9.43;;;8.93;;
485;SDS011;229;48.734;9.340;2022-07-29T07:57:19;9.00;;;8.30;;
485;SDS011;229;48.734;9.340;2022-07-29T07:59:47;9.30;;;8.20;;
485;SDS011;229;48.734;9.340;2022-07-29T08:02:15;7.73;;;7.33;;
485;SDS011;229;48.734;9.340;2022-07-29T08:04:42;8.63;;;7.33;;
485;SDS011;229;48.734;9.340;2022-07-29T08:07:10;7.97;;;7.57;;
485;SDS011;229;48.734;9.340;2022-07-29T08:09:39;9.30;;;7.60;;
485;SDS011;229;48.734;9.340;2022-07-29T08:12:06;8.43;;;7.97;;
485;SDS011;229;48.734;9.340;2022-07-29T08:14:34;7.67;;;7.27;;
485;SDS011;229;48.734;9.340;2022-07-29T08:17:01;8.30;;;7.90;;
485;SDS011;229;48.734;9.340;2022-07-29T08:19:30;9.03;;;8.53;;
485;SDS011;229;48.734;9.340;2022-07-29T08:21:57;9.00;;;7.97;;
485;SDS011;229;48.734;9.340;2022-07-29T08:24:24;7.33;;;6.90;;
485;SDS011;229;48.734;9.340;2022-07-29T08:27:05;8.00;;;7.60;;
485;SDS011;229;48.734;9.340;2022-07-29T08:29:33;6.97;;;6.57;;
485;SDS011;229;48.734;9.340;2022-07-29T08:32:00;7.50;;;7.10;;
485;SDS011;229;48.734;9.340;2022-07-29T08:34:27;7.17;;;6.77;;
485;SDS011;229;48.734;9.340;2022-07-29T08:36:56;8.67;;;8.17;;
485;SDS011;229;48.734;9.340;2022-07-29T08:39:24;7.70;;;7.30;;
485;SDS011;229;48.734;9.340;2022-07-29T08:41:51;7.70;;;7.30;;
485;SDS011;229;48.734;9.340;2022-07-29T08:44:20;10.00;;;7.40;;
485;SDS011;229;48.734;9.340;2022-07-29T08:46:47;8.60;;;8.10;;
485;SDS011;229;48.734;9.340;2022-07-29T08:49:15;7.37;;;6.97;;
485;SDS011;229;48.734;9.340;2022-07-29T08:51:43;8.77;;;8.27;;
485;SDS011;229;48.734;9.340;2022-07-29T08:54:12;9.03;;;7.33;;
485;SDS011;229;48.734;9.340;2022-07-29T08:56:43;7.97;;;7.57;;
485;SDS011;229;48.734;9.340;2022-07-29T08:59:10;8.40;;;7.67;;
485;SDS011;229;48.734;9.340;2022-07-29T09:01:38;8.10;;;7.50;;
485;SDS011;229;48.734;9.340;2022-07-29T09:04:09;7.97;;;7.60;;
485;SDS011;229;48.734;9.340;2022-07-29T09:06:38;6.90;;;6.50;;
485;SDS011;229;48.734;9.340;2022-07-29T09:09:06;8.10;;;7.53;;
485;SDS011;229;48.734;9.340;2022-07-29T09:11:35;7.00;;;6.60;;
485;SDS011;229;48.734;9.340;2022-07-29T09:14:03;6.93;;;6.57;;
485;SDS011;229;48.734;9.340;2022-07-29T09:16:46;7.10;;;6.70;;
485;SDS011;229;48.734;9.340;2022-07-29T09:19:20;7.87;;;7.47;;
485;SDS011;229;48.734;9.340;2022-07-29T09:21:48;7.37;;;6.97;;
485;SDS011;229;48.734;9.340;2022-07-29T09:24:24;7.50;;;7.10;;
485;SDS011;229;48.734;9.340;2022-07-29T09:26:53;8.10;;;7.70;;
485;SDS011;229;48.734;9.340;2022-07-29T09:29:22;7.40;;;7.00;;
485;SDS011;229;48.734;9.340;2022-07-29T09:31:50;6.60;;;6.20;;
485;SDS011;229;48.734;9.340;2022-07-29T09:34:20;7.27;;;6.90;;
485;SDS011;229;48.734;9.340;2022-07-29T09:36:48;7.13;;;6.73;;
485;SDS011;229;48.734;9.340;2022-07-29T09:39:26;7.43;;;7.03;;
485;SDS011;229;48.734;9.340;2022-07-29T09:41:57;7.33;;;6.93;;
485;SDS011;229;48.734;9.340;2022-07-29T09:44:25;8.00;;;6.80;;
485;SDS011;229;48.734;9.340;2022-07-29T09:46:53;9.30;;;8.20;;
485;SDS011;229;48.734;9.340;2022-07-29T09:49:20;8.50;;;7.27;;
485;SDS011;229;48.734;9.340;2022-07-29T09:51:47;8.17;;;7.77;;
485;SDS011;229;48.734;9.340;2022-07-29T09:54:26;7.60;;;7.20;;
485;SDS011;229;48.734;9.340;2022-07-29T09:56:55;7.57;;;7.10;;
485;SDS011;229;48.734;9.340;2022-07-29T09:59:22;8.20;;;7.80;;
485;SDS011;229;48.734;9.340;2022-07-29T10:01:51;8.60;;;8.10;;
485;SDS011;229;48.734;9.340;2022-07-29T10:04:18;8.17;;;7.77;;
485;SDS011;229;48.734;9.340;2022-07-29T10:06:56;7.30;;;6.90;;
485;SDS011;229;48.734;9.340;2022-07-29T10:09:23;10.10;;;7.90;;
485;SDS011;229;48.734;9.340;2022-07-29T10:12:06;8.07;;;7.03;;
485;SDS011;229;48.734;9.340;2022-07-29T10:14:34;7.30;;;6.87;;
485;SDS011;229;48.734;9.340;2022-07-29T10:17:02;7.10;;;6.70;;
485;SDS011;229;48.734;9.340;2022-07-29T10:19:30;9.27;;;7.20;;
485;SDS011;229;48.734;9.340;2022-07-29T10:21:57;7.07;;;6.67;;
485;SDS011;229;48.734;9.340;2022-07-29T10:24:25;10.03;;;7.60;;
485;SDS011;229;48.734;9.340;2022-07-29T10:26:53;7.50;;;7.10;;
485;SDS011;229;48.734;9.340;2022-07-29T10:29:22;8.73;;;7.57;;
485;SDS011;229;48.734;9.340;2022-07-29T10:31:52;12.50;;;8.17;;
485;SDS011;229;48.734;9.340;2022-07-29T10:34:27;7.30;;;6.60;;
485;SDS011;229;48.734;9.340;2022-07-29T10:36:59;9.13;;;7.60;;
485;SDS011;229;48.734;9.340;2022-07-29T10:39:33;8.43;;;7.97;;
485;SDS011;229;48.734;9.340;2022-07-29T10:42:11;8.20;;;7.80;;
485;SDS011;229;48.734;9.340;2022-07-29T10:44:42;8.50;;;7.60;;
485;SDS011;229;48.734;9.340;2022-07-29T10:47:19;8.10;;;7.37;;
485;SDS011;229;48.734;9.340;2022-07-29T10:49:54;8.80;;;8.13;;
485;SDS011;229;48.734;9.340;2022-07-29T10:52:22;8.03;;;7.67;;
485;SDS011;229;48.734;9.340;2022-07-29T10:54:52;8.60;;;8.10;;
485;SDS011;229;48.734;9.340;2022-07-29T10:57:23;8.47;;;8.00;;
485;SDS011;229;48.734;9.340;2022-07-29T11:02:42;9.23;;;8.60;;
485;SDS011;229;48.734;9.340;2022-07-29T11:05:10;9.00;;;8.50;;
485;SDS011;229;48.734;9.340;2022-07-29T11:07:38;9.13;;;8.03;;
485;SDS011;229;48.734;9.340;2022-07-29T11:10:24;8.70;;;8.20;;
485;SDS011;229;48.734;9.340;2022-07-29T11:12:51;9.20;;;8.70;;
485;SDS011;229;48.734;9.340;2022-07-29T11:15:20;8.00;;;7.60;;
485;SDS011;229;48.734;9.340;2022-07-29T11:20:35;10.10;;;8.70;;
485;SDS011;229;48.734;9.340;2022-07-29T11:23:16;9.17;;;8.67;;
485;SDS011;229;48.734;9.340;2022-07-29T11:25:44;9.23;;;8.63;;
485;SDS011;229;48.734;9.340;2022-07-29T11:28:13;11.60;;;8.73;;
485;SDS011;229;48.734;9.340;2022-07-29T11:30:47;9.00;;;8.50;;
485;SDS011;229;48.734;9.340;2022-07-29T11:33:28;11.50;;;8.97;;
485;SDS011;229;48.734;9.340;2022-07-29T11:36:10;12.23;;;6.80;;
485;SDS011;229;48.734;9.340;2022-07-29T11:38:38;17.37;;;8.20;;
485;SDS011;229;48.734;9.340;2022-07-29T11:41:24;16.33;;;8.50;;
485;SDS011;229;48.734;9.340;2022-07-29T11:43:52;9.77;;;7.07;;
485;SDS011;229;48.734;9.340;2022-07-29T11:49:05;12.77;;;8.40;;
485;SDS011;229;48.734;9.340;2022-07-29T11:51:35;8.60;;;7.23;;
485;SDS011;229;48.734;9.340;2022-07-29T11:54:02;7.87;;;6.70;;
485;SDS011;229;48.734;9.340;2022-07-29T11:56:31;7.30;;;6.90;;
485;SDS011;229;48.734;9.340;2022-07-29T11:59:03;7.87;;;7.43;;
485;SDS011;229;48.734;9.340;2022-07-29T12:01:31;8.23;;;7.03;;
485;SDS011;229;48.734;9.340;2022-07-29T12:04:02;10.63;;;6.63;;
485;SDS011;229;48.734;9.340;2022-07-29T12:06:29;8.90;;;6.53;;
485;SDS011;229;48.734;9.340;2022-07-29T12:08:58;10.20;;;6.20;;
485;SDS011;229;48.734;9.340;2022-07-29T12:11:25;7.27;;;6.90;;
485;SDS011;229;48.734;9.340;2022-07-29T12:13:53;11.33;;;6.43;;
485;SDS011;229;48.734;9.340;2022-07-29T12:16:20;7.70;;;6.53;;
485;SDS011;229;48.734;9.340;2022-07-29T12:18:54;6.90;;;6.50;;
485;SDS011;229;48.734;9.340;2022-07-29T12:21:22;8.83;;;5.53;;
485;SDS011;229;48.734;9.340;2022-07-29T12:23:53;6.23;;;5.80;;
485;SDS011;229;48.734;9.340;2022-07-29T12:26:22;6.67;;;5.83;;
485;SDS011;229;48.734;9.340;2022-07-29T12:28:50;10.73;;;6.20;;
485;SDS011;229;48.734;9.340;2022-07-29T12:31:17;6.87;;;6.10;;
485;SDS011;229;48.734;9.340;2022-07-29T12:33:44;9.10;;;5.83;;
485;SDS011;229;48.734;9.340;2022-07-29T12:36:19;5.83;;;5.53;;
485;SDS011;229;48.734;9.340;2022-07-29T12:38:46;9.60;;;6.17;;
485;SDS011;229;48.734;9.340;2022-07-29T12:41:13;10.20;;;5.60;;
485;SDS011;229;48.734;9.340;2022-07-29T12:43:52;6.20;;;5.20;;
485;SDS011;229;48.734;9.340;2022-07-29T12:46:19;9.53;;;6.17;;
485;SDS011;229;48.734;9.340;2022-07-29T12:48:50;6.23;;;5.57;;
485;SDS011;229;48.734;9.340;2022-07-29T12:51:25;7.50;;;5.00;;
485;SDS011;229;48.734;9.340;2022-07-29T12:54:05;5.63;;;5.07;;
485;SDS011;229;48.734;9.340;2022-07-29T12:56:33;5.17;;;4.87;;
485;SDS011;229;48.734;9.340;2022-07-29T12:59:01;5.20;;;4.90;;
485;SDS011;229;48.734;9.340;2022-07-29T13:01:37;6.57;;;5.40;;
485;SDS011;229;48.734;9.340;2022-07-29T13:04:05;5.30;;;5.00;;
485;SDS011;229;48.734;9.340;2022-07-29T13:06:36;5.80;;;5.50;;
485;SDS011;229;48.734;9.340;2022-07-29T13:09:05;5.90;;;5.23;;
485;SDS011;229;48.734;9.340;2022-07-29T13:11:33;6.80;;;4.60;;
485;SDS011;229;48.734;9.340;2022-07-29T13:14:02;6.10;;;4.50;;
485;SDS011;229;48.734;9.340;2022-07-29T13:16:29;6.50;;;4.97;;
485;SDS011;229;48.734;9.340;2022-07-29T13:19:03;6.97;;;4.47;;
485;SDS011;229;48.734;9.340;2022-07-29T13:21:31;5.50;;;4.57;;
485;SDS011;229;48.734;9.340;2022-07-29T13:23:58;6.93;;;5.33;;
485;SDS011;229;48.734;9.340;2022-07-29T13:26:25;7.70;;;5.60;;
485;SDS011;229;48.734;9.340;2022-07-29T13:28:53;12.57;;;9.43;;
485;SDS011;229;48.734;9.340;2022-07-29T13:31:21;7.20;;;5.93;;
485;SDS011;229;48.734;9.340;2022-07-29T13:33:48;12.97;;;6.27;;
485;SDS011;229;48.734;9.340;2022-07-29T13:36:16;14.03;;;6.97;;
485;SDS011;229;48.734;9.340;2022-07-29T13:38:43;8.40;;;6.30;;
485;SDS011;229;48.734;9.340;2022-07-29T13:41:10;10.50;;;6.13;;
485;SDS011;229;48.734;9.340;2022-07-29T13:43:37;7.20;;;6.73;;
485;SDS011;229;48.734;9.340;2022-07-29T13:46:04;7.40;;;6.10;;
485;SDS011;229;48.734;9.340;2022-07-29T13:48:33;7.07;;;6.50;;
485;SDS011;229;48.734;9.340;2022-07-29T13:51:00;11.10;;;5.60;;
485;SDS011;229;48.734;9.340;2022-07-29T13:53:28;8.03;;;6.50;;
485;SDS011;229;48.734;9.340;2022-07-29T13:55:55;9.63;;;6.07;;
485;SDS011;229;48.734;9.340;2022-07-29T13:58:22;6.00;;;5.70;;
485;SDS011;229;48.734;9.340;2022-07-29T14:00:49;7.83;;;6.27;;
485;SDS011;229;48.734;9.340;2022-07-29T14:03:16;7.53;;;6.47;;
485;SDS011;229;48.734;9.340;2022-07-29T14:05:45;8.23;;;6.00;;
485;SDS011;229;48.734;9.340;2022-07-29T14:08:12;9.57;;;6.87;;
485;SDS011;229;48.734;9.340;2022-07-29T14:10:40;7.30;;;6.03;;
485;SDS011;229;48.734;9.340;2022-07-29T14:13:07;7.67;;;6.30;;
485;SDS011;229;48.734;9.340;2022-07-29T14:15:34;12.43;;;6.60;;
485;SDS011;229;48.734;9.340;2022-07-29T14:18:01;7.87;;;6.77;;
485;SDS011;229;48.734;9.340;2022-07-29T14:20:28;11.10;;;7.57;;
485;SDS011;229;48.734;9.340;2022-07-29T14:22:57;12.43;;;6.60;;
485;SDS011;229;48.734;9.340;2022-07-29T14:25:24;8.00;;;6.70;;
485;SDS011;229;48.734;9.340;2022-07-29T14:27:51;8.67;;;7.10;;
485;SDS011;229;48.734;9.340;2022-07-29T14:30:19;8.63;;;6.53;;
485;SDS011;229;48.734;9.340;2022-07-29T14:32:46;8.87;;;6.50;;
485;SDS011;229;48.734;9.340;2022-07-29T14:35:14;7.93;;;7.10;;
485;SDS011;229;48.734;9.340;2022-07-29T14:37:41;9.00;;;6.90;;
485;SDS011;229;48.734;9.340;2022-07-29T14:40:10;13.97;;;7.40;;
485;SDS011;229;48.734;9.340;2022-07-29T14:42:37;9.77;;;7.90;;
485;SDS011;229;48.734;9.340;2022-07-29T14:45:06;10.80;;;8.07;;
485;SDS011;229;48.734;9.340;2022-07-29T14:47:33;11.43;;;8.50;;
485;SDS011;229;48.734;9.340;2022-07-29T14:50:00;11.27;;;7.97;;
485;SDS011;229;48.734;9.340;2022-07-29T14:52:27;11.27;;;7.63;;
485;SDS011;229;48.734;9.340;2022-07-29T14:54:55;10.07;;;7.57;;
485;SDS011;229;48.734;9.340;2022-07-29T14:57:23;11.90;;;8.20;;
485;SDS011;229;48.734;9.340;2022-07-29T14:59:50;8.20;;;7.40;;
485;SDS011;229;48.734;9.340;2022-07-29T15:02:17;8.30;;;7.47;;
485;SDS011;229;48.734;9.340;2022-07-29T15:04:45;8.93;;;8.10;;
485;SDS011;229;48.734;9.340;2022-07-29T15:07:13;14.20;;;8.20;;
485;SDS011;229;48.734;9.340;2022-07-29T15:09:40;9.97;;;7.80;;
485;SDS011;229;48.734;9.340;2022-07-29T15:12:08;8.83;;;8.00;;
485;SDS011;229;48.734;9.340;2022-07-29T15:14:37;9.43;;;7.50;;
485;SDS011;229;48.734;9.340;2022-07-29T15:17:04;7.47;;;6.90;;
485;SDS011;229;48.734;9.340;2022-07-29T15:19:32;12.23;;;7.57;;
485;SDS011;229;48.734;9.340;2022-07-29T15:21:59;11.07;;;8.40;;
485;SDS011;229;48.734;9.340;2022-07-29T15:24:26;11.93;;;8.20;;
485;SDS011;229;48.734;9.340;2022-07-29T15:26:53;9.47;;;7.53;;
485;SDS011;229;48.734;9.340;2022-07-29T15:29:21;9.07;;;7.20;;
485;SDS011;229;48.734;9.340;2022-07-29T15:31:49;9.10;;;8.57;;
485;SDS011;229;48.734;9.340;2022-07-29T15:34:17;9.10;;;8.60;;
485;SDS011;229;48.734;9.340;2022-07-29T15:36:45;9.63;;;7.50;;
485;SDS011;229;48.734;9.340;2022-07-29T15:39:12;10.70;;;8.73;;
485;SDS011;229;48.734;9.340;2022-07-29T15:41:40;12.03;;;8.53;;
485;SDS011;229;48.734;9.340;2022-07-29T15:44:07;10.67;;;8.30;;
485;SDS011;229;48.734;9.340;2022-07-29T15:46:34;10.30;;;8.33;;
485;SDS011;229;48.734;9.340;2022-07-29T15:49:23;12.97;;;8.57;;
485;SDS011;229;48.734;9.340;2022-07-29T15:51:56;13.30;;;8.47;;
485;SDS011;229;48.734;9.340;2022-07-29T15:54:23;9.77;;;7.80;;
485;SDS011;229;48.734;9.340;2022-07-29T15:56:50;9.00;;;7.97;;
485;SDS011;229;48.734;9.340;2022-07-29T15:59:19;10.33;;;8.17;;